createdAt,value
2022-12-12T00:03:06.696Z,49.04
2022-12-12T00:07:07.513Z,48.69
2022-12-12T00:11:11.322Z,48.45
2022-12-12T00:15:14.014Z,48.43
2022-12-12T00:19:14.353Z,48.01
2022-12-12T00:23:14.438Z,48.02
2022-12-12T00:27:17.393Z,48.06
2022-12-12T00:31:18.650Z,48.02
2022-12-12T00:35:19.009Z,47.85
2022-12-12T00:39:19.241Z,47.88
2022-12-12T00:43:21.906Z,47.75
2022-12-12T00:47:22.007Z,47.52
2022-12-12T00:51:25.377Z,47.40
2022-12-12T00:55:26.263Z,47.35
2022-12-12T00:59:29.512Z,47.59
2022-12-12T01:03:29.770Z,47.62
2022-12-12T01:07:29.999Z,47.86
2022-12-12T01:11:30.494Z,47.86
2022-12-12T01:15:33.991Z,47.71
2022-12-12T01:19:34.106Z,47.70
2022-12-12T01:23:34.261Z,47.63
2022-12-12T01:27:34.906Z,47.56
2022-12-12T01:31:37.606Z,47.70
2022-12-12T01:35:40.234Z,48.23
2022-12-12T01:39:40.299Z,48.55
2022-12-12T01:43:40.580Z,49.02
2022-12-12T01:47:43.343Z,48.75
2022-12-12T01:51:45.878Z,48.87
2022-12-12T01:55:49.704Z,48.76
2022-12-12T01:59:50.084Z,48.69
2022-12-12T02:03:53.435Z,48.49
2022-12-12T02:07:54.265Z,48.24
2022-12-12T02:11:57.580Z,48.57
2022-12-12T02:16:11.541Z,48.57
2022-12-12T02:20:45.684Z,48.35
2022-12-12T02:25:14.285Z,48.44
2022-12-12T02:29:57.799Z,48.74
2022-12-12T02:34:10.334Z,48.13
2022-12-12T02:38:24.579Z,47.89
2022-12-12T02:42:36.457Z,47.87
2022-12-12T02:46:44.337Z,48.10
2022-12-12T02:50:50.196Z,48.04
2022-12-12T02:54:51.365Z,48.40
2022-12-12T02:58:51.603Z,47.90
2022-12-12T03:03:36.102Z,48.02
2022-12-12T03:07:56.120Z,47.84
2022-12-12T03:12:09.068Z,47.79
2022-12-12T03:16:25.897Z,47.80
2022-12-12T03:20:32.285Z,47.25
2022-12-12T03:24:42.969Z,47.05
2022-12-12T03:28:50.274Z,47.05
2022-12-12T03:33:01.290Z,47.14
2022-12-12T03:37:12.102Z,47.40
2022-12-12T03:41:21.783Z,47.32
2022-12-12T03:45:30.688Z,47.71
2022-12-12T03:49:38.639Z,47.97
2022-12-12T03:53:46.767Z,48.81
2022-12-12T03:57:59.003Z,48.89
2022-12-12T04:02:10.519Z,49.13
2022-12-12T04:06:29.765Z,49.61
2022-12-12T04:10:49.383Z,50.19
2022-12-12T04:15:22.311Z,50.36
2022-12-12T04:19:51.004Z,50.23
2022-12-12T04:24:02.853Z,50.44
2022-12-12T04:28:08.415Z,51.02
2022-12-12T04:32:22.687Z,50.85
2022-12-12T04:36:27.911Z,51.36
2022-12-12T04:40:34.575Z,51.95
2022-12-12T04:44:38.360Z,51.50
2022-12-12T04:48:51.853Z,51.18
2022-12-12T04:52:59.433Z,51.45
2022-12-12T04:57:07.758Z,51.85
2022-12-12T05:01:18.889Z,52.14
2022-12-12T05:05:31.491Z,52.06
2022-12-12T05:09:32.265Z,51.90
2022-12-12T05:13:38.708Z,51.97
2022-12-12T05:17:47.902Z,51.71
2022-12-12T05:21:52.086Z,52.22
2022-12-12T05:25:53.648Z,51.94
2022-12-12T05:29:55.192Z,52.29
2022-12-12T05:33:59.106Z,52.71
2022-12-12T05:38:04.129Z,52.15
2022-12-12T05:42:04.834Z,52.09
2022-12-12T05:46:07.271Z,52.30
2022-12-12T05:50:10.206Z,52.29
2022-12-12T05:54:14.055Z,52.35
2022-12-12T05:58:14.998Z,52.26
2022-12-12T06:02:16.255Z,52.42
2022-12-12T06:06:16.423Z,52.51
2022-12-12T06:10:19.425Z,53.05
2022-12-12T06:14:19.539Z,52.83
2022-12-12T06:18:19.803Z,53.58
2022-12-12T06:22:20.057Z,53.45
2022-12-12T06:26:24.189Z,53.07
2022-12-12T06:30:25.169Z,52.81
2022-12-12T06:34:25.320Z,53.63
2022-12-12T06:38:25.568Z,53.30
2022-12-12T06:42:28.238Z,53.56
2022-12-12T06:46:32.441Z,52.95
2022-12-12T06:50:32.786Z,53.21
2022-12-12T06:54:32.910Z,53.32
2022-12-12T06:58:35.572Z,53.26
2022-12-12T07:02:35.885Z,53.17
2022-12-12T07:06:36.136Z,52.67
2022-12-12T07:10:38.923Z,52.52
2022-12-12T07:14:41.850Z,52.67
2022-12-12T07:18:42.317Z,52.68
2022-12-12T07:22:43.071Z,52.92
2022-12-12T07:26:43.209Z,52.44
2022-12-12T07:30:49.150Z,52.31
2022-12-12T07:34:49.709Z,52.42
2022-12-12T07:38:49.995Z,52.23
2022-12-12T07:42:50.144Z,52.55
2022-12-12T07:46:52.930Z,52.17
2022-12-12T07:50:53.432Z,52.61
2022-12-12T07:54:53.582Z,52.83
2022-12-12T07:58:55.405Z,52.61
2022-12-12T08:02:58.078Z,52.21
2022-12-12T08:07:04.016Z,51.91
2022-12-12T08:11:11.523Z,50.63
2022-12-12T08:15:18.392Z,49.29
2022-12-12T08:19:21.993Z,48.86
2022-12-12T08:23:22.404Z,47.80
2022-12-12T08:27:22.618Z,47.76
2022-12-12T08:31:24.149Z,47.17
2022-12-12T08:35:27.596Z,47.20
2022-12-12T08:39:28.152Z,46.08
2022-12-12T08:43:28.362Z,45.76
2022-12-12T08:47:29.537Z,46.21
2022-12-12T08:51:32.377Z,45.02
2022-12-12T08:55:33.424Z,44.16
2022-12-12T08:59:33.794Z,43.18
2022-12-12T09:03:33.889Z,42.85
2022-12-12T09:07:37.650Z,42.15
2022-12-12T09:11:37.755Z,42.79
2022-12-12T09:15:38.789Z,42.35
2022-12-12T09:19:39.304Z,41.18
2022-12-12T09:23:42.006Z,40.50
2022-12-12T09:27:42.075Z,39.32
2022-12-12T09:31:42.196Z,38.69
2022-12-12T09:35:43.655Z,37.84
2022-12-12T09:39:46.463Z,38.08
2022-12-12T09:43:59.552Z,37.95
2022-12-12T09:48:05.402Z,37.27
2022-12-12T09:52:06.467Z,37.50
2022-12-12T09:56:21.607Z,37.19
2022-12-12T10:00:22.528Z,36.77
2022-12-12T10:04:35.973Z,36.40
2022-12-12T10:08:48.160Z,36.27
2022-12-12T10:12:52.838Z,36.34
2022-12-12T10:16:58.066Z,35.75
2022-12-12T10:21:04.634Z,35.10
2022-12-12T10:25:22.134Z,33.97
2022-12-12T10:29:28.886Z,34.47
2022-12-12T10:33:43.143Z,33.89
2022-12-12T10:38:10.142Z,33.75
2022-12-12T10:42:27.323Z,32.93
2022-12-12T10:46:41.856Z,31.66
2022-12-12T10:50:47.576Z,31.01
2022-12-12T10:54:53.394Z,31.07
2022-12-12T10:58:59.625Z,30.95
2022-12-12T11:03:13.263Z,30.49
2022-12-12T11:07:23.583Z,31.07
2022-12-12T11:11:25.975Z,30.71
2022-12-12T11:15:33.547Z,30.29
2022-12-12T11:19:42.363Z,29.43
2022-12-12T11:23:53.106Z,29.58
2022-12-12T11:27:55.565Z,28.30
2022-12-12T11:31:56.632Z,29.33
2022-12-12T11:36:01.909Z,30.65
2022-12-12T11:40:03.838Z,30.51
2022-12-12T11:44:15.699Z,31.03
2022-12-12T11:48:43.311Z,32.28
2022-12-12T11:52:46.956Z,32.88
2022-12-12T11:56:57.905Z,33.08
2022-12-12T12:01:06.195Z,33.80
2022-12-12T12:05:30.854Z,34.41
2022-12-12T12:09:46.792Z,34.32
2022-12-12T12:14:26.815Z,34.05
2022-12-12T12:18:49.524Z,35.50
2022-12-12T12:23:06.354Z,36.14
2022-12-12T12:28:32.425Z,36.16
2022-12-12T12:32:21.271Z,36.20
2022-12-12T12:36:26.901Z,36.55
2022-12-12T12:40:44.705Z,36.32
2022-12-12T12:44:57.110Z,36.26
2022-12-12T12:49:03.935Z,36.60
2022-12-12T12:53:10.738Z,37.48
2022-12-12T12:57:19.064Z,38.02
2022-12-12T13:01:30.334Z,38.14
2022-12-12T13:05:38.836Z,38.55
2022-12-12T13:09:47.016Z,38.45
2022-12-12T13:13:51.416Z,37.89
2022-12-12T13:18:01.840Z,37.42
2022-12-12T13:22:09.223Z,37.11
2022-12-12T13:26:21.151Z,37.00
2022-12-12T13:30:27.544Z,36.34
2022-12-12T13:34:33.909Z,36.70
2022-12-12T13:38:37.091Z,37.12
2022-12-12T13:42:57.748Z,37.83
2022-12-12T13:46:58.015Z,38.47
2022-12-12T13:51:37.802Z,38.92
2022-12-12T13:55:38.961Z,38.71
2022-12-12T14:00:19.577Z,38.63
2022-12-12T14:04:34.616Z,38.55
2022-12-12T14:08:42.301Z,38.02
2022-12-12T14:12:43.194Z,37.72
2022-12-12T14:16:44.219Z,37.47
2022-12-12T14:20:47.001Z,37.46
2022-12-12T14:25:21.907Z,37.56
2022-12-12T14:29:29.013Z,38.09
2022-12-12T14:33:58.350Z,38.61
2022-12-12T14:38:17.913Z,38.96
2022-12-12T14:43:18.087Z,38.99
2022-12-12T14:47:10.916Z,38.29
2022-12-12T14:51:16.351Z,39.14
2022-12-12T14:55:18.919Z,39.57
2022-12-12T14:59:28.452Z,40.58
2022-12-12T15:03:34.804Z,40.52
2022-12-12T15:07:38.348Z,41.03
2022-12-12T15:11:39.357Z,40.95
2022-12-12T15:15:42.167Z,41.85
2022-12-12T15:19:47.699Z,42.01
2022-12-12T15:23:48.086Z,42.49
2022-12-12T15:27:56.150Z,42.91
2022-12-12T15:32:05.245Z,42.89
2022-12-12T15:36:05.616Z,43.12
2022-12-12T15:40:27.500Z,44.18
2022-12-12T15:44:27.920Z,44.73
2022-12-12T15:48:30.812Z,45.72
2022-12-12T15:52:35.753Z,46.36
2022-12-12T15:56:35.891Z,45.86
2022-12-12T16:00:41.402Z,46.16
2022-12-12T16:04:44.243Z,46.10
2022-12-12T16:08:57.025Z,46.79
2022-12-12T16:13:04.681Z,46.67
2022-12-12T16:17:09.936Z,46.75
2022-12-12T16:21:13.726Z,47.04
2022-12-12T16:25:21.535Z,47.18
2022-12-12T16:29:21.774Z,47.49
2022-12-12T16:33:30.882Z,47.63
2022-12-12T16:37:33.693Z,47.51
2022-12-12T16:41:33.905Z,47.59
2022-12-12T16:45:34.470Z,47.70
2022-12-12T16:49:34.640Z,48.33
2022-12-12T16:53:38.577Z,48.58
2022-12-12T16:57:38.621Z,48.46
2022-12-12T17:01:39.412Z,48.80
2022-12-12T17:05:41.269Z,49.15
2022-12-12T17:09:44.151Z,49.04
2022-12-12T17:13:50.125Z,49.13
2022-12-12T17:17:50.388Z,49.36
2022-12-12T17:21:50.972Z,49.43
2022-12-12T17:25:58.868Z,49.71
2022-12-12T17:30:02.915Z,49.38
2022-12-12T17:34:04.387Z,49.70
2022-12-12T17:38:04.695Z,49.88
2022-12-12T17:42:07.617Z,49.85
2022-12-12T17:46:14.388Z,50.07
2022-12-12T17:50:15.251Z,50.15
2022-12-12T17:54:15.712Z,50.14
2022-12-12T17:58:18.576Z,50.76
2022-12-12T18:02:18.740Z,50.93
2022-12-12T18:06:20.868Z,51.37
2022-12-12T18:10:21.235Z,51.76
2022-12-12T18:14:24.457Z,51.42
2022-12-12T18:18:25.311Z,51.97
2022-12-12T18:22:25.551Z,52.11
2022-12-12T18:26:26.943Z,51.69
2022-12-12T18:30:32.440Z,52.50
2022-12-12T18:34:32.649Z,51.80
2022-12-12T18:38:33.338Z,51.58
2022-12-12T18:42:33.609Z,51.96
2022-12-12T18:46:42.819Z,51.91
2022-12-12T18:50:43.709Z,51.99
2022-12-12T18:54:43.930Z,51.92
2022-12-12T18:58:44.226Z,52.06
2022-12-12T19:02:47.644Z,52.17
2022-12-12T19:06:48.141Z,51.88
2022-12-12T19:10:49.442Z,51.99
2022-12-12T19:15:15.790Z,51.76
2022-12-12T19:19:13.612Z,52.31
2022-12-12T19:23:14.173Z,52.22
2022-12-12T19:27:14.342Z,52.00
2022-12-12T19:31:18.496Z,52.05
2022-12-12T19:35:22.197Z,52.39
2022-12-12T19:39:22.495Z,52.14
2022-12-12T19:43:22.677Z,52.22
2022-12-12T19:47:22.855Z,52.25
2022-12-12T19:51:28.284Z,52.35
2022-12-12T19:55:28.650Z,52.35
2022-12-12T19:59:28.876Z,52.51
2022-12-12T20:03:29.064Z,52.30
2022-12-12T20:07:31.888Z,52.47
2022-12-12T20:11:33.404Z,52.32
2022-12-12T20:15:33.606Z,52.44
2022-12-12T20:19:34.091Z,52.52
2022-12-12T20:23:46.753Z,52.43
2022-12-12T20:27:47.195Z,53.57
2022-12-12T20:31:49.986Z,52.82
2022-12-12T20:35:50.348Z,52.27
2022-12-12T20:39:53.502Z,52.44
2022-12-12T20:43:56.148Z,52.38
2022-12-12T20:47:56.828Z,52.32
2022-12-12T20:51:59.385Z,52.24
2022-12-12T20:56:10.660Z,52.57
2022-12-12T21:00:14.586Z,52.75
2022-12-12T21:04:15.447Z,52.62
2022-12-12T21:08:15.923Z,52.17
2022-12-12T21:12:18.818Z,52.30
2022-12-12T21:16:22.533Z,52.71
2022-12-12T21:20:22.834Z,52.59
2022-12-12T21:24:23.235Z,53.52
2022-12-12T21:28:26.174Z,53.34
2022-12-12T21:32:26.674Z,53.06
2022-12-12T21:36:28.255Z,52.70
2022-12-12T21:40:29.174Z,53.06
2022-12-12T21:44:32.074Z,53.07
2022-12-12T21:48:32.941Z,52.83
2022-12-12T21:52:33.247Z,52.54
2022-12-12T21:56:34.488Z,53.19
2022-12-12T22:00:40.385Z,52.81
2022-12-12T22:04:40.843Z,52.23
2022-12-12T22:08:41.707Z,52.65
2022-12-12T22:12:42.161Z,53.02
2022-12-12T22:16:45.074Z,52.34
2022-12-12T22:20:45.656Z,52.06
2022-12-12T22:24:45.840Z,51.92
2022-12-12T22:28:46.876Z,52.11
2022-12-12T22:32:50.050Z,52.14
2022-12-12T22:36:51.019Z,52.08
2022-12-12T22:40:57.450Z,51.80
2022-12-12T22:44:57.736Z,51.99
2022-12-12T22:49:03.541Z,51.70
2022-12-12T22:53:04.048Z,51.93
2022-12-12T22:57:04.321Z,52.38
2022-12-12T23:01:11.322Z,51.83
2022-12-12T23:05:14.773Z,51.92
2022-12-12T23:09:21.693Z,52.45
2022-12-12T23:13:22.838Z,52.10
2022-12-12T23:17:23.433Z,51.46
2022-12-12T23:21:27.946Z,51.11
2022-12-12T23:25:28.367Z,51.54
2022-12-12T23:29:29.145Z,51.85
2022-12-12T23:33:29.761Z,51.58
2022-12-12T23:37:32.420Z,52.70
2022-12-12T23:41:33.322Z,52.37
2022-12-12T23:45:33.705Z,52.13
2022-12-12T23:49:34.046Z,51.81
2022-12-12T23:53:37.176Z,51.95
2022-12-12T23:57:37.445Z,53.62
